AirNav   Everest Fuels
 
 647 users online  

11Y Flying Feathers Airport
Chilton, Wisconsin, USA

GOING TO CHILTON?


FAA INFORMATION EFFECTIVE 18 JUNE 2020

Location

FAA Identifier: 11Y
Lat/Long: 44-03-40.2600N 088-11-41.7600W
44-03.671000N 088-11.696000W
44.0611833,-88.1949333
(estimated)
Elevation: 940 ft. / 287 m (estimated)
From city: 2 miles NW of CHILTON, WI
Time zone: UTC -5 (UTC -6 during Standard Time)
Zip code: 53014

Airport Operations

Airport use: Open to the public
Activation date: 06/2009
Control tower: no
ARTCC: CHICAGO CENTER
FSS: GREEN BAY FLIGHT SERVICE STATION
NOTAMs facility: GRB (NOTAM-D service available)
Attendance: UNATNDD
Wind indicator: yes
Segmented circle: no

Airport Communications

CTAF: 122.9
WX ASOS at OSH (16 nm W): PHONE 920-426-1644
WX AWOS-3 at ATW (18 nm NW): PHONE 920-832-2597

Nearby radio navigation aids

VOR radial/distance  VOR name  Freq  Var
OSHr073/16.1OSHKOSH VORTAC116.7502E
FAHr322/23.1FALLS VOR/DME110.0002W
GRBr179/29.6GREEN BAY VORTAC115.5001E
BJBr356/(38.5)WEST BEND VOR109.8001W

 
NDB name  Hdg/Dist  Freq  Var  ID
KOOKY139/12.840702WAQ .- --.-

Airport Services

Airframe service: NONE
Powerplant service: NONE
Bottled oxygen: NONE
Bulk oxygen: NONE

Runway Information

Runway 18/36

Dimensions: 1000 x 60 ft. / 305 x 18 m
Surface: turf, in fair condition
Runway edge markings: RWY 18/36 MKD WITH ORANGE HALF BARRELS.
RUNWAY 18  RUNWAY 36
Traffic pattern: leftleft
Obstructions: none75 ft. trees, 750 ft. from runway, 100 ft. left of centerline, 10:1 slope to clear

Runway 9/27

Dimensions: 500 x 20 ft. / 152 x 6 m
Surface: turf, in fair condition
Runway edge markings: RWY 9/27 MKD WITH ORANGE HALF BARRELS.
RUNWAY 9  RUNWAY 27
Traffic pattern: leftleft
Runway end identifier lights: nono
Obstructions: 66 ft. tree, 1320 ft. from runway, 180 ft. left of centerline, 20:1 slope to clear25 ft. pline, 640 ft. from runway, 25:1 slope to clear

Airport Ownership and Management from official FAA records

Ownership: Privately-owned
Owner: DEAN HEIMERMANN
W3124 HICKORY HILLS RD
CHILTON, WI 53014
Phone (920) 849-2199
Manager: DEAN HEIMERMANN
W3124 HICKORY HILLS RD
CHILTON, WI 53014
Phone 920-849-2199

Airport Operational Statistics

Aircraft based on the field: 4
Single engine airplanes: 3
Multi engine airplanes: 1
    
Aircraft operations: avg 84/month *
99% local general aviation
1% transient general aviation
* for 12-month period ending 09 September 2019

Additional Remarks

FOR CD CTC CHICAGO ARTCC AT 630-906-8921.

Instrument Procedures

There are no published instrument procedures at 11Y.

Some nearby airports with instrument procedures:

8D1 - New Holstein Municipal Airport (8 nm SE)
KOSH - Wittman Regional Airport (16 nm W)
KATW - Appleton International Airport (18 nm NW)
KFLD - Fond Du Lac County Airport (22 nm SW)
KMTW - Manitowoc County Airport (23 nm E)
 
Loc | Ops | Rwys | IFR | FBO | Links
Com | Nav | Svcs | Stats | Notes
Aerial photo
No photo
 
Sectional chart

 
Airport distance calculator
Flying to Flying Feathers Airport? Find the distance to fly.

From to 11Y

Sunrise and sunset
Times for 08-Jul-2020
 Local
(UTC-5)
 Zulu
(UTC)
Morning civil twilight04:4409:44
Sunrise05:2010:20
Sunset20:3601:36
Evening civil twilight21:1202:12

Current date and time
Zulu (UTC)  09-Jul-2020 04:17:22
Local (UTC-5)  08-Jul-2020 23:17:22
 
METAR
KOSH 
16nm W 
090353Z AUTO 19006KT 8SM CLR 25/23 A2986 RMK AO2 SLP097 T02500228 TSNO
KATW 
18nm NW 
090355Z AUTO 18007KT 10SM CLR 26/19 A2986 RMK AO2
KFLD 
22nm SW 
090353Z AUTO 18005KT 10SM CLR 26/23 A2988 RMK AO2 SLP110 T02560233 TSNO
KSBM 
22nm SE 
090353Z AUTO 19004KT 10SM CLR 24/21 A2988 RMK AO2 SLP112 T02440211
KMTW 
23nm E 
090356Z AUTO 20005KT 10SM CLR 24/21 A2988 RMK AO2 SLP113 T02440211
KGRB 
25nm N 
090353Z AUTO 18005KT 10SM CLR 26/23 A2986 RMK AO2 SLP108 T02610228
TAF
KATW 
18nm NW 
081724Z 0818/0918 20007KT P6SM SCT045 BKN250 TEMPO 0820/0823 SCT045 BKN100 FM090100 20004KT P6SM SCT100 FM091000 VRB03KT P6SM SCT035 BKN120 PROB30 0910/0913 3SM -TSRA OVC035CB FM091500 19008KT P6SM SCT040
NOTAMs
Click for the latest NOTAMs
NOTAMs are issued by the DoD/FAA and will open in a separate window not controlled by AirNav.

 

 
 

Would you like to see your business listed on this page?

 If your business provides an interesting product or service to pilots, flight crews, aircraft, or users of the Flying Feathers Airport, you should consider listing it here.  To start the listing process, click on the button below
 
Add a business
 

Other Pages about Flying Feathers Airport

Update a link
 
Copyright © AirNav, LLC. All rights reserved. Privacy Policy  Contact